createdAt,value
2019-01-14T00:00:03.686Z,89.66
2019-01-14T00:02:35.590Z,89.09
2019-01-14T00:05:07.822Z,88.52
2019-01-14T00:07:39.700Z,88.47
2019-01-14T00:10:11.630Z,87.94
2019-01-14T00:12:43.510Z,87.55
2019-01-14T00:15:15.745Z,87.97
2019-01-14T00:17:47.567Z,88.21
2019-01-14T00:20:20.521Z,87.91
2019-01-14T00:22:52.429Z,87.69
2019-01-14T00:25:24.304Z,87.69
2019-01-14T00:27:56.230Z,87.31
2019-01-14T00:30:28.100Z,87.43
2019-01-14T00:32:59.994Z,87.42
2019-01-14T00:35:31.827Z,87.33
2019-01-14T00:38:03.789Z,87.94
2019-01-14T00:40:35.648Z,88.10
2019-01-14T00:43:07.745Z,88.11
2019-01-14T00:45:39.753Z,88.36
2019-01-14T00:48:11.656Z,88.37
2019-01-14T00:50:43.562Z,88.32
2019-01-14T00:53:15.434Z,87.89
2019-01-14T00:55:47.304Z,88.03
2019-01-14T00:58:19.117Z,87.83
2019-01-14T01:00:51.102Z,87.97
2019-01-14T01:03:22.974Z,88.10
2019-01-14T01:05:54.841Z,88.37
2019-01-14T01:08:26.851Z,87.95
2019-01-14T01:10:58.716Z,87.67
2019-01-14T01:13:30.621Z,87.07
2019-01-14T01:16:02.486Z,88.06
2019-01-14T01:18:34.428Z,87.97
2019-01-14T01:21:06.493Z,88.76
2019-01-14T01:23:38.408Z,89.03
2019-01-14T01:26:10.259Z,89.85
2019-01-14T01:28:42.106Z,90.03
2019-01-14T01:31:13.937Z,90.27
2019-01-14T01:33:45.784Z,90.97
2019-01-14T01:36:17.648Z,91.04
2019-01-14T01:38:49.516Z,91.71
2019-01-14T01:41:21.421Z,92.42
2019-01-14T01:43:53.250Z,92.82
2019-01-14T01:46:25.125Z,92.89
2019-01-14T01:48:57.040Z,92.45
2019-01-14T01:51:28.902Z,92.38
2019-01-14T01:54:00.764Z,93.27
2019-01-14T01:56:32.619Z,94.25
2019-01-14T01:59:04.508Z,94.03
2019-01-14T02:01:36.344Z,93.87
2019-01-14T02:04:08.289Z,92.67
2019-01-14T02:06:40.145Z,93.40
2019-01-14T02:09:12.049Z,93.80
2019-01-14T02:11:43.937Z,93.82
2019-01-14T02:14:15.855Z,94.30
2019-01-14T02:16:48.340Z,94.36
2019-01-14T02:19:20.187Z,94.44
2019-01-14T02:21:52.050Z,94.21
2019-01-14T02:24:24.057Z,94.02
2019-01-14T02:26:55.906Z,94.05
2019-01-14T02:29:27.810Z,93.74
2019-01-14T02:31:59.759Z,93.22
2019-01-14T02:34:31.666Z,93.17
2019-01-14T02:37:03.532Z,93.02
2019-01-14T02:39:35.387Z,93.09
2019-01-14T02:42:07.258Z,93.20
2019-01-14T02:44:39.242Z,93.58
2019-01-14T02:47:11.103Z,93.69
2019-01-14T02:49:42.981Z,94.21
2019-01-14T02:52:15.398Z,94.18
2019-01-14T02:54:47.232Z,93.65
2019-01-14T02:57:19.094Z,93.84
2019-01-14T02:59:50.929Z,93.99
2019-01-14T03:02:22.780Z,93.85
2019-01-14T03:04:54.704Z,93.55
2019-01-14T03:07:26.586Z,92.91
2019-01-14T03:09:58.492Z,92.75
2019-01-14T03:12:30.394Z,93.09
2019-01-14T03:15:02.213Z,93.05
2019-01-14T03:17:34.078Z,92.98
2019-01-14T03:20:08.686Z,93.10
2019-01-14T03:22:40.662Z,93.42
2019-01-14T03:25:13.363Z,93.34
2019-01-14T03:27:45.197Z,93.43
2019-01-14T03:30:19.884Z,93.78
2019-01-14T03:32:51.761Z,94.28
2019-01-14T03:35:23.606Z,94.55
2019-01-14T03:37:55.453Z,95.11
2019-01-14T03:40:27.322Z,95.11
2019-01-14T03:42:59.199Z,95.65
2019-01-14T03:45:31.036Z,95.83
2019-01-14T03:48:02.933Z,95.84
2019-01-14T03:50:34.727Z,96.52
2019-01-14T03:53:06.662Z,97.23
2019-01-14T03:55:38.496Z,97.34
2019-01-14T03:58:10.397Z,97.60
2019-01-14T04:00:42.519Z,98.14
2019-01-14T04:03:14.398Z,98.37
2019-01-14T04:05:46.256Z,98.23
2019-01-14T04:08:18.121Z,98.36
2019-01-14T04:10:50.002Z,98.44
2019-01-14T04:13:21.852Z,98.38
2019-01-14T04:15:53.714Z,98.63
2019-01-14T04:18:25.585Z,98.92
2019-01-14T04:20:57.442Z,98.93
2019-01-14T04:23:29.289Z,99.19
2019-01-14T04:26:01.144Z,99.23
2019-01-14T04:28:32.961Z,99.00
2019-01-14T04:31:04.826Z,99.03
2019-01-14T04:33:36.678Z,99.04
2019-01-14T04:36:08.516Z,99.22
2019-01-14T04:38:41.153Z,99.14
2019-01-14T04:41:12.981Z,98.73
2019-01-14T04:43:44.847Z,98.72
2019-01-14T04:46:16.689Z,98.68
2019-01-14T04:48:48.554Z,98.40
2019-01-14T04:51:20.438Z,98.31
2019-01-14T04:53:52.330Z,98.42
2019-01-14T04:56:24.195Z,97.98
2019-01-14T04:58:56.141Z,97.67
2019-01-14T05:01:27.989Z,97.83
2019-01-14T05:03:59.857Z,97.14
2019-01-14T05:06:32.725Z,96.27
2019-01-14T05:09:06.888Z,96.07
2019-01-14T05:11:38.735Z,96.09
2019-01-14T05:14:10.593Z,96.57
2019-01-14T05:16:42.515Z,96.75
2019-01-14T05:19:14.397Z,97.07
2019-01-14T05:21:46.264Z,97.17
2019-01-14T05:24:18.136Z,97.42
2019-01-14T05:26:49.978Z,97.75
2019-01-14T05:29:21.842Z,98.09
2019-01-14T05:31:53.692Z,98.26
2019-01-14T05:34:25.500Z,98.40
2019-01-14T05:36:57.406Z,98.34
2019-01-14T05:39:29.270Z,98.08
2019-01-14T05:42:01.108Z,98.33
2019-01-14T05:44:32.965Z,98.20
2019-01-14T05:47:04.944Z,98.07
2019-01-14T05:49:36.793Z,98.09
2019-01-14T05:52:08.711Z,97.59
2019-01-14T05:54:40.596Z,97.87
2019-01-14T05:57:12.464Z,98.13
2019-01-14T05:59:44.360Z,98.19
2019-01-14T06:02:16.714Z,97.64
2019-01-14T06:04:48.679Z,97.55
2019-01-14T06:07:20.627Z,97.27
2019-01-14T06:09:52.529Z,96.84
2019-01-14T06:12:24.383Z,97.02
2019-01-14T06:14:56.347Z,97.13
2019-01-14T06:17:28.400Z,97.37
2019-01-14T06:20:00.881Z,97.03
2019-01-14T06:22:35.059Z,96.34
2019-01-14T06:25:09.180Z,96.55
2019-01-14T06:27:41.058Z,96.93
2019-01-14T06:30:19.739Z,97.29
2019-01-14T06:32:51.534Z,97.57
2019-01-14T06:35:23.567Z,97.53
2019-01-14T06:37:55.418Z,96.88
2019-01-14T06:40:27.233Z,95.92
2019-01-14T06:42:59.073Z,95.94
2019-01-14T06:45:30.953Z,95.56
2019-01-14T06:48:02.842Z,95.64
2019-01-14T06:50:34.700Z,94.69
2019-01-14T06:53:06.708Z,94.52
2019-01-14T06:55:38.655Z,93.95
2019-01-14T06:58:10.699Z,93.39
2019-01-14T07:00:42.557Z,93.13
2019-01-14T07:03:14.397Z,93.32
2019-01-14T07:05:46.296Z,93.52
2019-01-14T07:08:18.117Z,92.03
2019-01-14T07:10:51.417Z,91.68
2019-01-14T07:13:24.907Z,90.45
2019-01-14T07:15:56.806Z,88.89
2019-01-14T07:18:28.678Z,88.98
2019-01-14T07:21:00.534Z,89.31
2019-01-14T07:23:32.371Z,87.42
2019-01-14T07:26:04.223Z,86.27
2019-01-14T07:28:36.086Z,87.42
2019-01-14T07:31:07.955Z,87.24
2019-01-14T07:33:39.798Z,88.18
2019-01-14T07:36:11.702Z,88.48
2019-01-14T07:38:43.522Z,88.69
2019-01-14T07:41:15.403Z,88.40
2019-01-14T07:43:47.300Z,89.06
2019-01-14T07:46:19.208Z,90.28
2019-01-14T07:48:51.117Z,91.28
2019-01-14T07:51:23.035Z,90.45
2019-01-14T07:53:54.917Z,91.14
2019-01-14T07:56:26.919Z,91.52
2019-01-14T07:58:59.072Z,91.44
2019-01-14T08:01:30.936Z,91.91
2019-01-14T08:04:02.794Z,92.40
2019-01-14T08:06:34.652Z,92.52
2019-01-14T08:09:09.458Z,92.71
2019-01-14T08:11:41.355Z,93.03
2019-01-14T08:14:14.226Z,93.25
2019-01-14T08:16:46.187Z,93.29
2019-01-14T08:19:18.030Z,93.02
2019-01-14T08:21:49.965Z,93.10
2019-01-14T08:24:21.795Z,93.01
2019-01-14T08:26:53.731Z,92.95
2019-01-14T08:29:25.598Z,92.84
2019-01-14T08:31:57.608Z,92.43
2019-01-14T08:34:29.466Z,92.30
2019-01-14T08:37:01.358Z,91.86
2019-01-14T08:39:33.217Z,90.41
2019-01-14T08:42:05.289Z,89.72
2019-01-14T08:44:41.622Z,89.46
2019-01-14T08:47:13.495Z,89.09
2019-01-14T08:49:47.525Z,88.33
2019-01-14T08:52:19.439Z,87.64
2019-01-14T08:54:51.400Z,81.92
2019-01-14T08:57:23.264Z,70.94
2019-01-14T08:59:55.064Z,67.45
2019-01-14T09:02:27.015Z,67.24
2019-01-14T09:04:59.210Z,69.36
2019-01-14T09:07:31.125Z,71.28
2019-01-14T09:10:03.014Z,73.63
2019-01-14T09:12:34.885Z,75.30
2019-01-14T09:15:09.311Z,76.16
2019-01-14T09:17:41.491Z,74.70
2019-01-14T09:20:17.245Z,74.84
2019-01-14T09:22:49.146Z,75.10
2019-01-14T09:25:20.953Z,74.37
2019-01-14T09:27:52.901Z,71.98
2019-01-14T09:30:26.528Z,67.35
2019-01-14T09:32:58.348Z,58.25
2019-01-14T09:35:30.197Z,51.87
2019-01-14T09:38:02.064Z,47.31
2019-01-14T09:40:33.895Z,42.51
2019-01-14T09:43:05.830Z,40.20
2019-01-14T09:45:37.669Z,36.76
2019-01-14T09:48:09.519Z,33.47
2019-01-14T09:50:41.385Z,33.49
2019-01-14T09:53:13.217Z,36.38
2019-01-14T09:55:45.108Z,37.73
2019-01-14T09:58:16.915Z,36.10
2019-01-14T10:00:48.814Z,33.91
2019-01-14T10:03:20.635Z,33.85
2019-01-14T10:05:52.494Z,31.80
2019-01-14T10:08:24.345Z,33.28
2019-01-14T10:10:56.212Z,33.18
2019-01-14T10:13:28.175Z,33.88
2019-01-14T10:16:00.032Z,38.22
2019-01-14T10:18:31.899Z,41.54
2019-01-14T10:21:03.775Z,46.00
2019-01-14T10:23:35.663Z,49.62
2019-01-14T10:26:08.017Z,52.00
2019-01-14T10:28:39.939Z,54.64
2019-01-14T10:31:11.772Z,58.07
2019-01-14T10:33:43.654Z,57.86
2019-01-14T10:36:15.445Z,57.93
2019-01-14T10:38:50.540Z,59.53
2019-01-14T10:41:20.858Z,59.05
2019-01-14T10:43:52.714Z,59.34
2019-01-14T10:46:24.597Z,58.99
2019-01-14T10:48:56.422Z,59.89
2019-01-14T10:51:28.271Z,59.56
2019-01-14T10:54:00.115Z,57.37
2019-01-14T10:56:31.945Z,57.02
2019-01-14T10:59:04.040Z,57.01
2019-01-14T11:01:35.937Z,55.68
2019-01-14T11:04:07.782Z,49.09
2019-01-14T11:06:39.597Z,48.75
2019-01-14T11:09:11.474Z,51.08
2019-01-14T11:11:43.307Z,51.54
2019-01-14T11:14:15.114Z,49.28
2019-01-14T11:16:47.001Z,50.20
2019-01-14T11:19:18.905Z,50.29
2019-01-14T11:21:50.752Z,51.31
2019-01-14T11:24:22.637Z,54.37
2019-01-14T11:26:54.483Z,56.63
2019-01-14T11:29:52.000Z,58.60
2019-01-14T11:32:24.676Z,60.10
2019-01-14T11:34:56.554Z,60.13
2019-01-14T11:37:28.414Z,60.40
2019-01-14T11:40:00.327Z,59.10
2019-01-14T11:42:32.298Z,60.39
2019-01-14T11:45:04.713Z,59.75
2019-01-14T11:47:36.601Z,58.66
2019-01-14T11:50:13.668Z,58.83
2019-01-14T11:52:45.684Z,57.30
2019-01-14T11:55:17.581Z,59.15
2019-01-14T11:57:49.451Z,60.38
2019-01-14T12:00:26.603Z,61.06
2019-01-14T12:02:58.486Z,62.12
2019-01-14T12:05:30.445Z,62.58
2019-01-14T12:08:02.286Z,62.59
2019-01-14T12:10:34.208Z,63.47
2019-01-14T12:13:05.992Z,63.60
2019-01-14T12:15:37.841Z,64.14
2019-01-14T12:18:09.714Z,63.80
2019-01-14T12:20:41.538Z,64.89
2019-01-14T12:23:13.406Z,64.63
2019-01-14T12:25:45.248Z,65.24
2019-01-14T12:28:17.095Z,65.56
2019-01-14T12:30:49.172Z,66.16
2019-01-14T12:33:21.044Z,64.80
2019-01-14T12:35:52.840Z,65.55
2019-01-14T12:38:24.648Z,64.86
2019-01-14T12:40:56.575Z,65.88
2019-01-14T12:43:28.399Z,65.27
2019-01-14T12:46:00.258Z,65.11
2019-01-14T12:48:32.119Z,64.43
2019-01-14T12:51:03.952Z,65.40
2019-01-14T12:53:35.842Z,65.31
2019-01-14T12:56:07.698Z,65.77
2019-01-14T12:58:39.582Z,66.21
2019-01-14T13:01:11.392Z,66.86
2019-01-14T13:03:43.271Z,66.14
2019-01-14T13:06:15.107Z,66.21
2019-01-14T13:08:46.962Z,65.26
2019-01-14T13:11:23.199Z,66.01
2019-01-14T13:13:52.491Z,66.43
2019-01-14T13:16:25.509Z,66.52
2019-01-14T13:18:57.331Z,64.23
2019-01-14T13:21:29.172Z,62.73
2019-01-14T13:24:01.016Z,59.49
2019-01-14T13:26:32.869Z,56.51
2019-01-14T13:29:04.788Z,51.37
2019-01-14T13:31:36.624Z,48.48
2019-01-14T13:34:08.695Z,44.73
2019-01-14T13:36:40.636Z,44.15
2019-01-14T13:39:12.764Z,44.21
2019-01-14T13:41:44.631Z,46.28
2019-01-14T13:44:16.520Z,48.71
2019-01-14T13:46:49.550Z,51.86
2019-01-14T13:49:21.426Z,53.80
2019-01-14T13:51:53.268Z,57.07
2019-01-14T13:54:25.134Z,59.04
2019-01-14T13:56:56.966Z,60.26
2019-01-14T13:59:28.906Z,59.15
2019-01-14T14:02:00.737Z,57.85
2019-01-14T14:04:32.550Z,55.17
2019-01-14T14:07:04.440Z,51.44
2019-01-14T14:09:41.211Z,46.67
2019-01-14T14:12:09.815Z,46.46
2019-01-14T14:14:41.745Z,47.44
2019-01-14T14:17:13.635Z,47.78
2019-01-14T14:19:45.477Z,49.72
2019-01-14T14:22:17.328Z,51.68
2019-01-14T14:24:49.223Z,53.58
2019-01-14T14:27:21.042Z,55.49
2019-01-14T14:29:52.904Z,56.61
2019-01-14T14:32:24.780Z,58.13
2019-01-14T14:34:56.637Z,58.97
2019-01-14T14:37:28.514Z,59.63
2019-01-14T14:40:00.351Z,60.84
2019-01-14T14:42:32.241Z,60.22
2019-01-14T14:45:04.772Z,60.92
2019-01-14T14:47:36.675Z,61.54
2019-01-14T14:50:11.644Z,61.69
2019-01-14T14:52:43.758Z,61.90
2019-01-14T14:55:15.599Z,62.90
2019-01-14T14:57:47.482Z,63.52
2019-01-14T15:00:21.410Z,62.49
2019-01-14T15:02:53.354Z,63.03
2019-01-14T15:05:25.287Z,64.02
2019-01-14T15:07:57.162Z,63.52
2019-01-14T15:10:29.000Z,64.47
2019-01-14T15:13:00.849Z,64.00
2019-01-14T15:15:32.657Z,64.11
2019-01-14T15:18:04.804Z,64.36
2019-01-14T15:20:36.690Z,64.23
2019-01-14T15:23:08.599Z,64.37
2019-01-14T15:25:40.451Z,65.84
2019-01-14T15:28:12.239Z,67.49
2019-01-14T15:30:44.056Z,67.91
2019-01-14T15:33:15.853Z,68.98
2019-01-14T15:35:47.771Z,70.33
2019-01-14T15:38:19.604Z,70.83
2019-01-14T15:40:51.512Z,72.01
2019-01-14T15:43:23.527Z,73.50
2019-01-14T15:45:55.439Z,74.39
2019-01-14T15:48:27.300Z,74.73
2019-01-14T15:50:59.151Z,75.14
2019-01-14T15:53:31.047Z,75.48
2019-01-14T15:56:02.978Z,75.36
2019-01-14T15:58:36.930Z,75.72
2019-01-14T16:01:08.743Z,74.98
2019-01-14T16:03:40.657Z,73.44
2019-01-14T16:06:12.543Z,74.19
2019-01-14T16:08:44.376Z,73.95
2019-01-14T16:11:16.242Z,74.10
2019-01-14T16:13:48.138Z,74.21
2019-01-14T16:16:19.964Z,74.24
2019-01-14T16:18:51.812Z,74.28
2019-01-14T16:21:23.668Z,74.33
2019-01-14T16:23:55.499Z,72.93
2019-01-14T16:26:27.355Z,72.77
2019-01-14T16:28:59.208Z,71.70
2019-01-14T16:31:31.073Z,71.51
2019-01-14T16:34:02.905Z,71.93
2019-01-14T16:36:34.772Z,72.75
2019-01-14T16:39:09.475Z,71.79
2019-01-14T16:41:41.335Z,71.92
2019-01-14T16:44:13.160Z,71.75
2019-01-14T16:46:45.006Z,71.22
2019-01-14T16:49:16.887Z,71.26
2019-01-14T16:51:48.716Z,71.10
2019-01-14T16:54:20.550Z,71.30
2019-01-14T16:56:52.392Z,71.94
2019-01-14T16:59:24.207Z,72.55
2019-01-14T17:01:56.202Z,72.09
2019-01-14T17:04:28.076Z,71.97
2019-01-14T17:06:59.988Z,72.09
2019-01-14T17:09:31.909Z,71.95
2019-01-14T17:12:03.842Z,72.56
2019-01-14T17:14:35.699Z,73.24
2019-01-14T17:17:07.547Z,72.85
2019-01-14T17:19:39.391Z,72.87
2019-01-14T17:22:11.210Z,72.66
2019-01-14T17:24:43.070Z,73.51
2019-01-14T17:27:14.896Z,73.55
2019-01-14T17:29:46.848Z,73.77
2019-01-14T17:32:18.678Z,74.04
2019-01-14T17:34:50.607Z,74.56
2019-01-14T17:37:22.492Z,74.95
2019-01-14T17:39:54.336Z,75.43
2019-01-14T17:42:26.240Z,75.83
2019-01-14T17:44:58.239Z,76.65
2019-01-14T17:47:30.129Z,77.43
2019-01-14T17:50:01.981Z,78.31
2019-01-14T17:52:33.814Z,78.37
2019-01-14T17:55:05.995Z,78.80
2019-01-14T17:57:37.902Z,79.36
2019-01-14T18:00:15.960Z,79.14
2019-01-14T18:02:47.890Z,79.12
2019-01-14T18:05:19.713Z,79.42
2019-01-14T18:07:51.605Z,79.60
2019-01-14T18:10:23.474Z,79.97
2019-01-14T18:12:55.360Z,79.94
2019-01-14T18:15:27.171Z,79.95
2019-01-14T18:17:59.003Z,79.18
2019-01-14T18:20:30.903Z,78.91
2019-01-14T18:23:02.701Z,79.52
2019-01-14T18:25:34.531Z,79.75
2019-01-14T18:28:06.535Z,80.31
2019-01-14T18:30:38.450Z,80.14
2019-01-14T18:33:10.294Z,78.84
2019-01-14T18:35:42.090Z,78.96
2019-01-14T18:38:14.003Z,79.62
2019-01-14T18:40:47.275Z,79.09
2019-01-14T18:43:19.275Z,78.68
2019-01-14T18:45:51.117Z,78.72
2019-01-14T18:48:22.945Z,78.88
2019-01-14T18:50:55.405Z,79.08
2019-01-14T18:53:27.334Z,79.31
2019-01-14T18:55:59.199Z,79.26
2019-01-14T18:58:31.112Z,78.32
2019-01-14T19:01:02.933Z,78.54
2019-01-14T19:03:34.839Z,78.67
2019-01-14T19:06:06.856Z,78.32
2019-01-14T19:08:38.669Z,78.40
2019-01-14T19:11:12.007Z,78.46
2019-01-14T19:13:43.855Z,79.16
2019-01-14T19:16:16.410Z,79.19
2019-01-14T19:18:48.280Z,79.41
2019-01-14T19:21:20.110Z,79.69
2019-01-14T19:23:51.955Z,79.97
2019-01-14T19:26:23.824Z,79.41
2019-01-14T19:28:55.738Z,78.95
2019-01-14T19:31:27.573Z,79.00
2019-01-14T19:33:59.416Z,79.54
2019-01-14T19:36:31.579Z,79.43
2019-01-14T19:39:04.456Z,79.47
2019-01-14T19:41:36.294Z,79.07
2019-01-14T19:44:08.118Z,79.17
2019-01-14T19:46:40.019Z,79.41
2019-01-14T19:49:11.896Z,79.48
2019-01-14T19:51:43.730Z,79.37
2019-01-14T19:54:15.596Z,79.17
2019-01-14T19:56:47.438Z,79.21
2019-01-14T19:59:19.303Z,78.15
2019-01-14T20:01:51.199Z,78.39
2019-01-14T20:04:23.307Z,78.84
2019-01-14T20:06:55.167Z,78.25
2019-01-14T20:09:27.027Z,78.34
2019-01-14T20:11:58.965Z,78.18
2019-01-14T20:14:30.913Z,78.68
2019-01-14T20:17:02.813Z,78.23
2019-01-14T20:19:34.677Z,78.21
2019-01-14T20:22:06.698Z,76.98
2019-01-14T20:24:38.559Z,77.24
2019-01-14T20:27:10.419Z,77.50
2019-01-14T20:29:42.365Z,77.81
2019-01-14T20:32:14.226Z,77.86
2019-01-14T20:34:46.109Z,77.17
2019-01-14T20:37:17.915Z,77.00
2019-01-14T20:39:50.045Z,77.28
2019-01-14T20:42:22.364Z,77.40
2019-01-14T20:44:54.416Z,77.59
2019-01-14T20:47:26.320Z,77.15
2019-01-14T20:49:58.242Z,77.32
2019-01-14T20:52:30.123Z,77.30
2019-01-14T20:55:02.143Z,77.52
2019-01-14T20:57:34.101Z,78.08
2019-01-14T21:00:12.132Z,77.43
2019-01-14T21:02:44.027Z,77.52
2019-01-14T21:05:16.321Z,77.43
2019-01-14T21:07:48.258Z,77.65
2019-01-14T21:10:20.416Z,77.46
2019-01-14T21:12:52.391Z,77.17
2019-01-14T21:15:24.305Z,77.63
2019-01-14T21:17:56.170Z,78.00
2019-01-14T21:20:28.163Z,77.84
2019-01-14T21:23:00.171Z,77.95
2019-01-14T21:25:32.244Z,78.09
2019-01-14T21:28:04.692Z,78.27
2019-01-14T21:30:36.914Z,78.26
2019-01-14T21:33:09.015Z,78.16
2019-01-14T21:35:41.003Z,78.48
2019-01-14T21:38:12.881Z,78.82
2019-01-14T21:40:44.843Z,78.97
2019-01-14T21:43:16.868Z,79.07
2019-01-14T21:45:48.872Z,79.31
2019-01-14T21:48:21.066Z,79.61
2019-01-14T21:50:53.175Z,79.62
2019-01-14T21:53:25.037Z,80.13
2019-01-14T21:55:56.934Z,80.64
2019-01-14T21:58:29.038Z,80.96
2019-01-14T22:01:01.161Z,80.89
2019-01-14T22:03:33.357Z,81.18
2019-01-14T22:06:05.546Z,81.36
2019-01-14T22:08:37.621Z,81.53
2019-01-14T22:11:09.965Z,81.78
2019-01-14T22:13:41.888Z,82.02
2019-01-14T22:16:14.240Z,82.33
2019-01-14T22:18:46.370Z,82.61
2019-01-14T22:21:18.303Z,82.54
2019-01-14T22:23:50.452Z,82.35
2019-01-14T22:26:22.702Z,82.56
2019-01-14T22:28:55.015Z,82.94
2019-01-14T22:31:26.914Z,83.17
2019-01-14T22:33:58.985Z,83.35
2019-01-14T22:36:31.040Z,83.64
2019-01-14T22:39:04.759Z,83.03
2019-01-14T22:41:36.705Z,83.16
2019-01-14T22:44:08.696Z,83.53
2019-01-14T22:46:40.553Z,83.70
2019-01-14T22:49:12.572Z,83.90
2019-01-14T22:51:44.482Z,84.16
2019-01-14T22:54:16.391Z,84.30
2019-01-14T22:56:48.209Z,84.34
2019-01-14T22:59:20.205Z,84.24
2019-01-14T23:01:53.223Z,84.50
2019-01-14T23:04:25.139Z,84.09
2019-01-14T23:06:56.970Z,84.35
2019-01-14T23:09:28.831Z,84.63
2019-01-14T23:12:00.661Z,84.85
2019-01-14T23:14:32.574Z,84.54
2019-01-14T23:17:04.602Z,84.94
2019-01-14T23:19:36.442Z,84.41
2019-01-14T23:22:08.405Z,84.13
2019-01-14T23:24:40.297Z,84.39
2019-01-14T23:27:12.165Z,84.77
2019-01-14T23:29:44.153Z,85.27
2019-01-14T23:32:16.310Z,84.92
2019-01-14T23:34:48.195Z,84.47
2019-01-14T23:37:20.188Z,84.04
2019-01-14T23:39:52.139Z,84.65
2019-01-14T23:42:24.088Z,85.05
2019-01-14T23:44:55.981Z,85.55
2019-01-14T23:47:28.178Z,85.61
2019-01-14T23:50:00.059Z,85.49
2019-01-14T23:52:31.918Z,85.79
2019-01-14T23:55:04.004Z,86.21
2019-01-14T23:57:36.073Z,86.07
